Busseron, Indiana
Current Conditions -  °F | °C
As of 8:53 PM on Tuesday 21 Oct 2014 (Local Time) from KLWV Reporting Station
Clear Clear  
Wind Chill: 50°   Ceiling: Unl
Heat Index: 50°   Visibility: 10mi
Dew Point: 41°   Wind: 9mph
Humidity: 71%   Direction: 360°N
Pressure: 30.18"   Gusts: NA
Location:  38.8517°N, 87.414°W
Report Text: KLWV 220153Z AUTO 36008KT 10SM CLR 10/05 A3018 RMK AO2 SLP222 T01000050
Loading
Personal Weather Stations






























Interactive Weather Map
Tropical Storm Tracking
New forecast layout! Learn more

10-Day Weather Forecast

Advertisements
Track Severe Weather on mobile